createdAt,value
2022-11-28T00:00:09.428Z,69.93
2022-11-28T00:01:18.604Z,69.94
2022-11-28T00:02:21.052Z,70.04
2022-11-28T00:03:25.071Z,69.89
2022-11-28T00:04:28.565Z,69.89
2022-11-28T00:05:31.086Z,70.00
2022-11-28T00:06:37.822Z,70.00
2022-11-28T00:07:40.247Z,70.08
2022-11-28T00:08:43.783Z,70.06
2022-11-28T00:09:46.133Z,70.06
2022-11-28T00:10:49.601Z,70.12
2022-11-28T00:11:52.924Z,70.11
2022-11-28T00:12:56.558Z,69.79
2022-11-28T00:13:59.776Z,69.96
2022-11-28T00:15:02.057Z,69.96
2022-11-28T00:16:07.475Z,69.90
2022-11-28T00:17:10.724Z,69.93
2022-11-28T00:18:12.968Z,70.04
2022-11-28T00:19:16.354Z,70.15
2022-11-28T00:20:18.985Z,70.30
2022-11-28T00:21:23.389Z,70.55
2022-11-28T00:22:28.051Z,70.72
2022-11-28T00:23:32.148Z,70.94
2022-11-28T00:24:34.301Z,70.99
2022-11-28T00:25:37.557Z,71.11
2022-11-28T00:26:42.482Z,71.10
2022-11-28T00:27:44.941Z,70.98
2022-11-28T00:28:49.797Z,70.98
2022-11-28T00:29:52.191Z,70.67
2022-11-28T00:30:55.873Z,70.54
2022-11-28T00:31:58.086Z,70.17
2022-11-28T00:33:01.323Z,69.93
2022-11-28T00:34:04.171Z,70.14
2022-11-28T00:35:08.170Z,69.96
2022-11-28T00:36:11.413Z,69.75
2022-11-28T00:37:14.678Z,70.04
2022-11-28T00:38:16.886Z,70.34
2022-11-28T00:39:20.165Z,70.68
2022-11-28T00:40:23.248Z,70.31
2022-11-28T00:41:29.732Z,69.94
2022-11-28T00:42:31.941Z,69.97
2022-11-28T00:43:35.616Z,69.83
2022-11-28T00:44:41.178Z,70.26
2022-11-28T00:45:43.667Z,70.22
2022-11-28T00:46:47.001Z,70.23
2022-11-28T00:47:49.395Z,70.26
2022-11-28T00:48:53.927Z,70.48
2022-11-28T00:49:56.663Z,70.47
2022-11-28T00:51:08.288Z,70.50
2022-11-28T00:52:11.471Z,70.44
2022-11-28T00:53:13.650Z,70.72
2022-11-28T00:54:16.958Z,70.56
2022-11-28T00:55:19.398Z,70.60
2022-11-28T00:56:25.916Z,70.50
2022-11-28T00:57:29.363Z,70.34
2022-11-28T00:58:32.625Z,70.32
2022-11-28T00:59:35.846Z,70.46
2022-11-28T01:00:39.783Z,70.59
2022-11-28T01:01:45.040Z,70.23
2022-11-28T01:02:47.449Z,70.23
2022-11-28T01:03:52.048Z,70.08
2022-11-28T01:04:54.537Z,70.09
2022-11-28T01:05:57.947Z,69.62
2022-11-28T01:07:02.431Z,69.69
2022-11-28T01:08:04.654Z,70.17
2022-11-28T01:09:11.696Z,69.91
2022-11-28T01:10:14.212Z,69.90
2022-11-28T01:11:17.584Z,69.56
2022-11-28T01:12:19.683Z,69.16
2022-11-28T01:13:23.040Z,69.20
2022-11-28T01:14:27.110Z,68.79
2022-11-28T01:15:29.427Z,68.93
2022-11-28T01:16:34.569Z,68.83
2022-11-28T01:17:36.780Z,69.29
2022-11-28T01:18:40.462Z,68.69
2022-11-28T01:19:43.028Z,68.40
2022-11-28T01:20:46.428Z,68.46
2022-11-28T01:21:48.971Z,68.34
2022-11-28T01:22:52.403Z,68.83
2022-11-28T01:23:55.090Z,69.38
2022-11-28T01:24:58.361Z,69.36
2022-11-28T01:26:01.822Z,69.49
2022-11-28T01:27:05.242Z,69.50
2022-11-28T01:28:07.384Z,69.50
2022-11-28T01:29:11.409Z,69.53
2022-11-28T01:30:13.949Z,69.86
2022-11-28T01:31:19.677Z,69.26
2022-11-28T01:32:23.440Z,69.22
2022-11-28T01:33:27.443Z,68.44
2022-11-28T01:34:30.138Z,68.51
2022-11-28T01:35:33.736Z,69.12
2022-11-28T01:36:37.099Z,69.90
2022-11-28T01:37:39.423Z,70.79
2022-11-28T01:38:43.262Z,71.22
2022-11-28T01:39:45.522Z,71.59
2022-11-28T01:40:49.204Z,72.20
2022-11-28T01:41:51.750Z,71.97
2022-11-28T01:42:55.801Z,71.78
2022-11-28T01:44:01.541Z,71.49
2022-11-28T01:45:15.230Z,71.02
2022-11-28T01:46:17.584Z,70.87
2022-11-28T01:47:26.521Z,70.36
2022-11-28T01:48:32.485Z,70.37
2022-11-28T01:49:39.081Z,70.62
2022-11-28T01:50:43.482Z,70.75
2022-11-28T01:51:51.153Z,71.21
2022-11-28T01:52:58.332Z,71.01
2022-11-28T01:54:02.133Z,70.91
2022-11-28T01:55:06.740Z,70.35
2022-11-28T01:56:14.613Z,70.78
2022-11-28T01:57:20.581Z,70.60
2022-11-28T01:58:25.575Z,70.76
2022-11-28T01:59:30.633Z,71.05
2022-11-28T02:00:34.969Z,71.32
2022-11-28T02:01:38.254Z,70.81
2022-11-28T02:02:47.132Z,70.82
2022-11-28T02:03:50.753Z,70.09
2022-11-28T02:04:54.660Z,70.24
2022-11-28T02:05:57.534Z,70.45
2022-11-28T02:07:00.920Z,69.90
2022-11-28T02:08:03.630Z,69.36
2022-11-28T02:09:08.204Z,69.10
2022-11-28T02:10:14.169Z,69.99
2022-11-28T02:11:42.850Z,70.20
2022-11-28T02:13:03.648Z,70.56
2022-11-28T02:14:15.707Z,70.35
2022-11-28T02:15:32.323Z,70.24
2022-11-28T02:16:49.344Z,70.04
2022-11-28T02:18:14.433Z,69.83
2022-11-28T02:19:44.915Z,70.56
2022-11-28T02:21:23.103Z,70.52
2022-11-28T02:22:29.640Z,70.17
2022-11-28T02:23:53.603Z,70.97
2022-11-28T02:25:13.828Z,70.62
2022-11-28T02:26:46.696Z,71.11
2022-11-28T02:28:15.460Z,71.00
2022-11-28T02:30:01.230Z,70.84
2022-11-28T02:31:22.428Z,70.84
2022-11-28T02:32:53.185Z,71.00
2022-11-28T02:33:57.733Z,70.67
2022-11-28T02:35:11.747Z,70.75
2022-11-28T02:36:20.421Z,70.56
2022-11-28T02:37:29.738Z,70.59
2022-11-28T02:38:44.472Z,70.49
2022-11-28T02:39:55.281Z,69.94
2022-11-28T02:41:03.983Z,68.94
2022-11-28T02:42:15.437Z,69.15
2022-11-28T02:43:24.664Z,68.78
2022-11-28T02:44:35.091Z,68.42
2022-11-28T02:45:45.061Z,67.70
2022-11-28T02:46:55.347Z,67.62
2022-11-28T02:48:04.546Z,67.56
2022-11-28T02:49:12.754Z,67.82
2022-11-28T02:50:23.683Z,68.61
2022-11-28T02:51:32.273Z,68.23
2022-11-28T02:52:40.539Z,68.07
2022-11-28T02:53:44.529Z,68.47
2022-11-28T02:54:48.768Z,68.57
2022-11-28T02:55:52.629Z,68.41
2022-11-28T02:56:56.529Z,68.48
2022-11-28T02:57:58.826Z,67.87
2022-11-28T02:59:02.452Z,67.94
2022-11-28T03:00:24.617Z,67.90
2022-11-28T03:01:35.080Z,67.96
2022-11-28T03:02:37.874Z,68.44
2022-11-28T03:03:54.524Z,68.37
2022-11-28T03:05:06.156Z,68.29
2022-11-28T03:06:20.467Z,68.24
2022-11-28T03:07:36.948Z,68.24
2022-11-28T03:08:55.271Z,68.63
2022-11-28T03:10:09.054Z,68.58
2022-11-28T03:11:20.213Z,68.63
2022-11-28T03:12:30.706Z,68.53
2022-11-28T03:13:41.191Z,68.49
2022-11-28T03:14:55.166Z,68.25
2022-11-28T03:16:06.503Z,68.10
2022-11-28T03:17:19.599Z,68.32
2022-11-28T03:18:26.248Z,67.88
2022-11-28T03:19:34.557Z,66.86
2022-11-28T03:20:48.190Z,67.33
2022-11-28T03:21:59.250Z,66.67
2022-11-28T03:23:14.659Z,67.58
2022-11-28T03:24:25.142Z,66.71
2022-11-28T03:25:35.449Z,66.49
2022-11-28T03:26:47.435Z,66.82
2022-11-28T03:27:54.261Z,67.28
2022-11-28T03:29:04.591Z,66.92
2022-11-28T03:30:13.982Z,66.77
2022-11-28T03:31:21.293Z,66.73
2022-11-28T03:32:27.857Z,67.42
2022-11-28T03:33:34.747Z,67.44
2022-11-28T03:34:44.689Z,67.22
2022-11-28T03:35:52.925Z,67.07
2022-11-28T03:37:00.503Z,67.16
2022-11-28T03:38:09.105Z,66.17
2022-11-28T03:39:14.251Z,66.00
2022-11-28T03:40:22.438Z,65.99
2022-11-28T03:41:30.505Z,65.78
2022-11-28T03:42:38.282Z,66.10
2022-11-28T03:43:45.706Z,66.33
2022-11-28T03:44:52.952Z,66.13
2022-11-28T03:46:00.467Z,66.00
2022-11-28T03:47:06.337Z,64.65
2022-11-28T03:48:17.843Z,65.11
2022-11-28T03:49:25.818Z,66.32
2022-11-28T03:50:38.082Z,65.29
2022-11-28T03:51:44.935Z,65.03
2022-11-28T03:52:53.203Z,66.36
2022-11-28T03:54:01.749Z,66.41
2022-11-28T03:55:09.196Z,65.54
2022-11-28T03:56:15.312Z,65.77
2022-11-28T03:57:24.223Z,65.42
2022-11-28T03:58:32.876Z,65.53
2022-11-28T03:59:38.789Z,66.15
2022-11-28T04:00:54.558Z,66.47
2022-11-28T04:02:07.921Z,66.44
2022-11-28T04:03:22.851Z,66.40
2022-11-28T04:04:33.358Z,66.25
2022-11-28T04:05:45.098Z,66.14
2022-11-28T04:06:54.889Z,66.28
2022-11-28T04:08:02.920Z,66.95
2022-11-28T04:09:14.354Z,66.23
2022-11-28T04:10:22.434Z,66.25
2022-11-28T04:11:31.493Z,66.74
2022-11-28T04:12:47.338Z,66.72
2022-11-28T04:13:54.917Z,66.63
2022-11-28T04:15:05.352Z,66.47
2022-11-28T04:16:13.465Z,66.09
2022-11-28T04:17:21.441Z,66.10
2022-11-28T04:18:31.316Z,66.41
2022-11-28T04:19:38.783Z,65.80
2022-11-28T04:20:47.599Z,65.65
2022-11-28T04:21:57.338Z,65.89
2022-11-28T04:23:08.220Z,66.11
2022-11-28T04:24:15.161Z,64.93
2022-11-28T04:25:21.686Z,65.29
2022-11-28T04:26:29.481Z,65.76
2022-11-28T04:27:38.890Z,65.39
2022-11-28T04:28:42.449Z,64.80
2022-11-28T04:29:48.963Z,64.78
2022-11-28T04:30:54.321Z,64.69
2022-11-28T04:32:00.272Z,64.86
2022-11-28T04:33:09.254Z,65.50
2022-11-28T04:34:16.695Z,65.66
2022-11-28T04:35:27.303Z,65.58
2022-11-28T04:36:34.034Z,66.07
2022-11-28T04:37:40.400Z,65.70
2022-11-28T04:38:45.271Z,65.94
2022-11-28T04:39:50.439Z,65.90
2022-11-28T04:40:58.529Z,65.53
2022-11-28T04:42:06.880Z,65.25
2022-11-28T04:43:16.551Z,65.15
2022-11-28T04:44:24.773Z,65.57
2022-11-28T04:45:31.174Z,66.09
2022-11-28T04:46:39.981Z,67.03
2022-11-28T04:47:43.506Z,67.62
2022-11-28T04:48:46.898Z,67.87
2022-11-28T04:49:49.459Z,67.38
2022-11-28T04:51:01.247Z,67.51
2022-11-28T04:52:10.152Z,66.69
2022-11-28T04:53:21.015Z,67.31
2022-11-28T04:54:26.868Z,67.13
2022-11-28T04:55:37.097Z,67.60
2022-11-28T04:56:44.703Z,67.90
2022-11-28T04:57:57.104Z,68.16
2022-11-28T04:59:01.421Z,67.63
2022-11-28T05:00:08.364Z,67.09
2022-11-28T05:01:17.321Z,67.00
2022-11-28T05:02:22.930Z,66.95
2022-11-28T05:03:28.488Z,66.62
2022-11-28T05:04:32.161Z,66.64
2022-11-28T05:05:43.912Z,66.91
2022-11-28T05:06:47.311Z,67.76
2022-11-28T05:07:51.877Z,68.12
2022-11-28T05:08:56.062Z,67.84
2022-11-28T05:09:58.280Z,68.35
2022-11-28T05:11:01.731Z,68.40
2022-11-28T05:12:04.698Z,68.50
2022-11-28T05:13:08.020Z,68.11
2022-11-28T05:14:10.224Z,68.50
2022-11-28T05:15:19.069Z,68.20
2022-11-28T05:16:22.039Z,68.01
2022-11-28T05:17:25.335Z,68.05
2022-11-28T05:18:27.599Z,67.70
2022-11-28T05:19:30.819Z,67.73
2022-11-28T05:20:33.107Z,68.50
2022-11-28T05:21:36.294Z,68.30
2022-11-28T05:22:38.577Z,67.63
2022-11-28T05:23:44.982Z,68.29
2022-11-28T05:24:48.219Z,69.14
2022-11-28T05:25:50.478Z,69.19
2022-11-28T05:26:53.777Z,68.86
2022-11-28T05:27:56.125Z,68.96
2022-11-28T05:28:59.672Z,68.76
2022-11-28T05:30:01.988Z,68.46
2022-11-28T05:31:05.744Z,67.80
2022-11-28T05:32:09.124Z,67.12
2022-11-28T05:33:11.245Z,67.23
2022-11-28T05:34:14.456Z,66.82
2022-11-28T05:35:16.949Z,66.92
2022-11-28T05:36:20.275Z,67.64
2022-11-28T05:37:22.830Z,67.88
2022-11-28T05:38:26.088Z,68.73
2022-11-28T05:39:30.161Z,68.75
2022-11-28T05:40:33.509Z,68.53
2022-11-28T05:41:36.123Z,68.21
2022-11-28T05:42:39.482Z,68.33
2022-11-28T05:43:41.638Z,68.30
2022-11-28T05:44:44.861Z,68.26
2022-11-28T05:45:48.228Z,68.34
2022-11-28T05:46:50.641Z,68.72
2022-11-28T05:47:53.963Z,68.37
2022-11-28T05:48:57.084Z,67.70
2022-11-28T05:50:00.444Z,67.33
2022-11-28T05:51:04.350Z,67.59
2022-11-28T05:52:07.731Z,67.36
2022-11-28T05:53:10.784Z,67.68
2022-11-28T05:54:14.214Z,68.33
2022-11-28T05:55:18.040Z,68.15
2022-11-28T05:56:23.764Z,68.42
2022-11-28T05:57:26.107Z,68.29
2022-11-28T05:58:29.648Z,68.90
2022-11-28T05:59:31.973Z,69.19
2022-11-28T06:00:35.722Z,69.27
2022-11-28T06:01:38.082Z,69.54
2022-11-28T06:02:41.461Z,69.20
2022-11-28T06:03:44.477Z,69.28
2022-11-28T06:04:47.800Z,69.48
2022-11-28T06:05:50.076Z,69.58
2022-11-28T06:06:53.625Z,69.80
2022-11-28T06:07:55.866Z,69.44
2022-11-28T06:08:59.937Z,69.71
2022-11-28T06:10:02.114Z,69.05
2022-11-28T06:11:07.530Z,69.04
2022-11-28T06:12:10.862Z,68.97
2022-11-28T06:13:13.005Z,69.04
2022-11-28T06:14:16.342Z,69.13
2022-11-28T06:15:19.176Z,69.24
2022-11-28T06:16:24.262Z,69.42
2022-11-28T06:17:26.921Z,69.02
2022-11-28T06:18:30.240Z,69.25
2022-11-28T06:19:32.771Z,68.40
2022-11-28T06:20:36.587Z,68.44
2022-11-28T06:21:40.059Z,69.21
2022-11-28T06:22:42.323Z,68.84
2022-11-28T06:23:45.552Z,69.38
2022-11-28T06:24:47.779Z,68.99
2022-11-28T06:25:51.556Z,69.52
2022-11-28T06:26:56.521Z,68.76
2022-11-28T06:27:59.079Z,69.39
2022-11-28T06:29:02.930Z,69.14
2022-11-28T06:30:06.925Z,69.35
2022-11-28T06:31:12.950Z,70.01
2022-11-28T06:32:18.926Z,70.18
2022-11-28T06:33:25.047Z,69.98
2022-11-28T06:34:28.716Z,70.27
2022-11-28T06:35:31.202Z,70.05
2022-11-28T06:36:35.279Z,69.51
2022-11-28T06:37:37.696Z,69.12
2022-11-28T06:38:41.264Z,68.88
2022-11-28T06:39:43.763Z,68.29
2022-11-28T06:40:47.219Z,68.50
2022-11-28T06:41:50.496Z,68.03
2022-11-28T06:42:54.272Z,68.05
2022-11-28T06:43:58.082Z,68.57
2022-11-28T06:45:02.192Z,69.25
2022-11-28T06:46:04.696Z,69.01
2022-11-28T06:47:07.974Z,69.28
2022-11-28T06:48:10.192Z,69.00
2022-11-28T06:49:14.271Z,68.83
2022-11-28T06:50:17.077Z,68.33
2022-11-28T06:51:21.721Z,68.87
2022-11-28T06:52:25.242Z,68.59
2022-11-28T06:53:31.407Z,68.76
2022-11-28T06:54:35.212Z,68.28
2022-11-28T06:55:37.399Z,68.24
2022-11-28T06:56:41.986Z,67.86
2022-11-28T06:57:45.390Z,67.39
2022-11-28T06:58:56.191Z,67.70
2022-11-28T06:59:59.519Z,67.74
2022-11-28T07:01:08.374Z,67.15
2022-11-28T07:02:11.214Z,67.20
2022-11-28T07:03:14.802Z,67.06
2022-11-28T07:04:18.096Z,67.43
2022-11-28T07:05:21.964Z,66.38
2022-11-28T07:06:27.209Z,66.10
2022-11-28T07:07:29.588Z,65.55
2022-11-28T07:08:33.626Z,65.55
2022-11-28T07:09:37.086Z,65.88
2022-11-28T07:10:39.428Z,66.34
2022-11-28T07:11:43.466Z,66.03
2022-11-28T07:12:45.910Z,64.79
2022-11-28T07:13:51.547Z,64.06
2022-11-28T07:14:53.847Z,64.66
2022-11-28T07:15:57.062Z,65.41
2022-11-28T07:17:00.464Z,63.67
2022-11-28T07:18:02.911Z,63.47
2022-11-28T07:19:06.638Z,62.90
2022-11-28T07:20:10.345Z,63.73
2022-11-28T07:21:15.732Z,63.03
2022-11-28T07:22:18.013Z,62.49
2022-11-28T07:23:21.277Z,62.26
2022-11-28T07:24:23.704Z,61.41
2022-11-28T07:25:27.175Z,61.80
2022-11-28T07:26:31.111Z,61.84
2022-11-28T07:27:33.381Z,62.15
2022-11-28T07:28:36.693Z,62.10
2022-11-28T07:29:40.467Z,62.71
2022-11-28T07:30:43.745Z,62.18
2022-11-28T07:31:46.063Z,62.73
2022-11-28T07:32:49.700Z,62.74
2022-11-28T07:33:52.419Z,63.10
2022-11-28T07:34:55.718Z,62.43
2022-11-28T07:36:01.795Z,62.96
2022-11-28T07:37:05.553Z,62.69
2022-11-28T07:38:07.814Z,63.52
2022-11-28T07:39:15.183Z,63.66
2022-11-28T07:40:19.834Z,62.86
2022-11-28T07:41:26.511Z,62.60
2022-11-28T07:42:29.416Z,62.76
2022-11-28T07:43:32.817Z,62.80
2022-11-28T07:44:36.097Z,63.48
2022-11-28T07:45:59.499Z,63.00
2022-11-28T07:47:04.674Z,63.03
2022-11-28T07:48:07.227Z,62.95
2022-11-28T07:49:10.572Z,63.22
2022-11-28T07:50:12.881Z,62.54
2022-11-28T07:51:19.333Z,62.56
2022-11-28T07:52:22.807Z,62.43
2022-11-28T07:53:26.211Z,62.97
2022-11-28T07:54:28.721Z,63.04
2022-11-28T07:55:31.936Z,62.06
2022-11-28T07:57:04.690Z,61.74
2022-11-28T07:57:58.821Z,61.33
2022-11-28T07:59:03.298Z,61.00
2022-11-28T08:00:08.550Z,61.19
2022-11-28T08:01:14.909Z,61.69
2022-11-28T08:02:18.967Z,61.52
2022-11-28T08:03:21.369Z,61.29
2022-11-28T08:04:24.626Z,60.90
2022-11-28T08:05:26.885Z,60.64
2022-11-28T08:06:32.065Z,61.22
2022-11-28T08:07:34.361Z,61.20
2022-11-28T08:08:39.060Z,61.08
2022-11-28T08:09:42.522Z,61.26
2022-11-28T08:10:45.709Z,61.79
2022-11-28T08:11:49.406Z,61.50
2022-11-28T08:12:51.998Z,61.67
2022-11-28T08:13:57.958Z,61.90
2022-11-28T08:15:01.429Z,61.69
2022-11-28T08:16:05.127Z,62.09
2022-11-28T08:17:09.797Z,61.66
2022-11-28T08:18:13.396Z,61.90
2022-11-28T08:19:16.988Z,62.11
2022-11-28T08:20:21.181Z,62.29
2022-11-28T08:21:26.361Z,62.12
2022-11-28T08:22:29.337Z,61.95
2022-11-28T08:23:33.808Z,61.85
2022-11-28T08:24:37.147Z,62.02
2022-11-28T08:25:39.576Z,62.44
2022-11-28T08:26:42.817Z,62.53
2022-11-28T08:27:45.046Z,62.00
2022-11-28T08:28:51.238Z,62.38
2022-11-28T08:29:54.284Z,63.00
2022-11-28T08:30:57.990Z,62.47
2022-11-28T08:32:01.252Z,61.82
2022-11-28T08:33:05.599Z,62.19
2022-11-28T08:34:12.778Z,62.38
2022-11-28T08:35:16.104Z,62.42
2022-11-28T08:36:20.445Z,60.71
2022-11-28T08:37:23.832Z,61.52
2022-11-28T08:38:26.065Z,61.08
2022-11-28T08:39:29.266Z,61.20
2022-11-28T08:40:31.490Z,61.06
2022-11-28T08:41:35.099Z,61.74
2022-11-28T08:42:38.781Z,61.92
2022-11-28T08:43:42.967Z,62.03
2022-11-28T08:44:46.200Z,61.17
2022-11-28T08:45:48.771Z,60.97
2022-11-28T08:46:52.064Z,60.34
2022-11-28T08:47:55.343Z,61.24
2022-11-28T08:49:04.214Z,61.50
2022-11-28T08:50:09.094Z,61.37
2022-11-28T08:51:16.025Z,61.44
2022-11-28T08:52:19.647Z,60.94
2022-11-28T08:53:22.030Z,61.04
2022-11-28T08:54:25.371Z,60.89
2022-11-28T08:55:32.163Z,60.98
2022-11-28T08:56:36.916Z,60.86
2022-11-28T08:57:40.353Z,60.13
2022-11-28T08:58:42.683Z,60.59
2022-11-28T08:59:46.332Z,60.71
2022-11-28T09:00:49.084Z,59.96
2022-11-28T09:01:54.316Z,60.58
2022-11-28T09:02:56.669Z,60.87
2022-11-28T09:04:01.284Z,60.86
2022-11-28T09:05:04.057Z,61.09
2022-11-28T09:06:08.056Z,61.02
2022-11-28T09:07:11.524Z,61.64
2022-11-28T09:08:14.679Z,61.65
2022-11-28T09:09:18.096Z,61.84
2022-11-28T09:10:21.936Z,61.99
2022-11-28T09:11:25.144Z,60.54
2022-11-28T09:12:28.672Z,61.19
2022-11-28T09:13:31.233Z,61.58
2022-11-28T09:14:34.479Z,60.43
2022-11-28T09:15:41.304Z,60.60
2022-11-28T09:16:45.110Z,59.51
2022-11-28T09:17:47.611Z,58.79
2022-11-28T09:18:51.321Z,57.72
2022-11-28T09:19:56.613Z,57.66
2022-11-28T09:20:59.603Z,57.16
2022-11-28T09:22:02.795Z,57.27
2022-11-28T09:23:04.980Z,57.23
2022-11-28T09:24:09.624Z,57.14
2022-11-28T09:25:11.783Z,57.54
2022-11-28T09:26:17.200Z,57.49
2022-11-28T09:27:20.411Z,57.61
2022-11-28T09:28:23.240Z,57.94
2022-11-28T09:29:26.687Z,58.70
2022-11-28T09:30:29.132Z,59.39
2022-11-28T09:31:32.680Z,59.50
2022-11-28T09:32:35.493Z,58.91
2022-11-28T09:33:38.755Z,59.32
2022-11-28T09:34:42.184Z,59.74
2022-11-28T09:35:47.318Z,60.04
2022-11-28T09:36:50.626Z,61.13
2022-11-28T09:37:52.836Z,61.22
2022-11-28T09:38:56.127Z,61.99
2022-11-28T09:40:12.607Z,62.47
2022-11-28T09:41:40.865Z,63.70
2022-11-28T09:42:45.216Z,64.80
2022-11-28T09:43:53.464Z,65.54
2022-11-28T09:45:02.749Z,66.14
2022-11-28T09:46:08.868Z,66.18
2022-11-28T09:47:18.100Z,66.03
2022-11-28T09:48:28.566Z,66.21
2022-11-28T09:49:40.725Z,66.83
2022-11-28T09:50:45.152Z,66.81
2022-11-28T09:51:53.989Z,67.48
2022-11-28T09:53:02.959Z,68.02
2022-11-28T09:54:14.879Z,68.25
2022-11-28T09:55:24.238Z,68.66
2022-11-28T09:56:28.495Z,68.80
2022-11-28T09:57:35.818Z,68.24
2022-11-28T09:58:44.845Z,68.50
2022-11-28T09:59:47.296Z,68.41
2022-11-28T10:00:58.071Z,68.85
2022-11-28T10:02:16.983Z,68.66
2022-11-28T10:03:37.429Z,68.49
2022-11-28T10:04:43.802Z,68.85
2022-11-28T10:05:53.669Z,69.14
2022-11-28T10:07:07.252Z,69.44
2022-11-28T10:08:24.565Z,68.38
2022-11-28T10:09:38.414Z,67.97
2022-11-28T10:10:49.841Z,67.87
2022-11-28T10:12:06.317Z,67.77
2022-11-28T10:13:15.445Z,68.32
2022-11-28T10:14:38.492Z,67.37
2022-11-28T10:15:51.123Z,67.62
2022-11-28T10:17:03.197Z,68.35
2022-11-28T10:18:16.952Z,67.84
2022-11-28T10:19:53.294Z,67.57
2022-11-28T10:20:58.662Z,67.24
2022-11-28T10:22:06.229Z,67.69
2022-11-28T10:23:15.232Z,67.78
2022-11-28T10:24:22.239Z,67.84
2022-11-28T10:25:30.307Z,68.30
2022-11-28T10:26:38.452Z,68.17
2022-11-28T10:27:42.785Z,67.70
2022-11-28T10:28:50.794Z,67.75
2022-11-28T10:29:59.999Z,67.55
2022-11-28T10:31:09.280Z,67.63
2022-11-28T10:32:17.711Z,67.67
2022-11-28T10:33:26.533Z,68.29
2022-11-28T10:34:32.438Z,68.71
2022-11-28T10:35:43.916Z,69.14
2022-11-28T10:36:55.307Z,69.09
2022-11-28T10:38:00.284Z,68.98
2022-11-28T10:39:12.331Z,69.32
2022-11-28T10:40:22.334Z,68.93
2022-11-28T10:41:33.479Z,68.30
2022-11-28T10:42:43.635Z,68.79
2022-11-28T10:43:52.233Z,68.44
2022-11-28T10:45:08.108Z,68.61
2022-11-28T10:46:30.605Z,68.72
2022-11-28T10:48:29.880Z,68.16
2022-11-28T10:49:41.439Z,67.67
2022-11-28T10:50:54.311Z,68.20
2022-11-28T10:52:08.813Z,67.68
2022-11-28T10:53:22.347Z,68.00
2022-11-28T10:54:43.333Z,67.70
2022-11-28T10:55:58.316Z,67.90
2022-11-28T10:57:07.367Z,67.58
2022-11-28T10:58:22.998Z,67.33
2022-11-28T10:59:42.268Z,66.74
2022-11-28T11:00:49.698Z,67.41
2022-11-28T11:01:54.720Z,67.16
2022-11-28T11:03:00.846Z,67.12
2022-11-28T11:04:04.381Z,66.89
2022-11-28T11:05:11.865Z,66.61
2022-11-28T11:06:15.177Z,66.38
2022-11-28T11:07:29.115Z,66.46
2022-11-28T11:08:37.909Z,66.86
2022-11-28T11:09:40.581Z,66.27
2022-11-28T11:10:49.344Z,66.04
2022-11-28T11:12:01.007Z,64.67
2022-11-28T11:13:14.570Z,63.27
2022-11-28T11:14:33.252Z,63.39
2022-11-28T11:15:36.875Z,62.35
2022-11-28T11:16:51.404Z,61.57
2022-11-28T11:17:54.916Z,61.76
2022-11-28T11:18:58.264Z,61.84
2022-11-28T11:20:00.860Z,62.06
2022-11-28T11:21:10.778Z,61.74
2022-11-28T11:22:20.472Z,61.71
2022-11-28T11:23:24.788Z,61.08
2022-11-28T11:24:28.541Z,61.49
2022-11-28T11:25:33.376Z,62.14
2022-11-28T11:26:40.465Z,61.77
2022-11-28T11:27:51.397Z,61.34
2022-11-28T11:28:55.441Z,61.96
2022-11-28T11:29:59.076Z,62.31
2022-11-28T11:31:03.846Z,62.18
2022-11-28T11:32:10.821Z,62.62
2022-11-28T11:33:17.019Z,62.47
2022-11-28T11:34:23.721Z,61.43
2022-11-28T11:35:29.161Z,61.61
2022-11-28T11:36:35.497Z,60.70
2022-11-28T11:37:39.200Z,60.56
2022-11-28T11:38:42.515Z,60.17
2022-11-28T11:39:50.803Z,60.82
2022-11-28T11:40:54.467Z,61.54
2022-11-28T11:42:13.297Z,60.27
2022-11-28T11:43:28.516Z,59.81
2022-11-28T11:44:35.597Z,59.63
2022-11-28T11:45:39.281Z,59.96
2022-11-28T11:46:52.559Z,60.14
2022-11-28T11:47:56.393Z,60.51
2022-11-28T11:48:59.612Z,60.77
2022-11-28T11:50:06.563Z,59.97
2022-11-28T11:51:23.890Z,60.81
2022-11-28T11:52:28.946Z,61.12
2022-11-28T11:53:32.195Z,61.16
2022-11-28T11:54:35.463Z,60.80
2022-11-28T11:55:47.570Z,60.57
2022-11-28T11:57:00.716Z,61.09
2022-11-28T11:58:17.628Z,60.06
2022-11-28T11:59:25.862Z,59.96
2022-11-28T12:00:36.136Z,59.87
2022-11-28T12:01:40.301Z,59.22
2022-11-28T12:02:47.707Z,59.76
2022-11-28T12:03:56.320Z,59.81
2022-11-28T12:05:05.251Z,60.32
2022-11-28T12:06:15.688Z,60.00
2022-11-28T12:07:26.418Z,60.21
2022-11-28T12:08:37.194Z,60.67
2022-11-28T12:09:44.563Z,60.46
2022-11-28T12:10:54.100Z,60.17
2022-11-28T12:12:02.592Z,59.39
2022-11-28T12:13:06.202Z,59.36
2022-11-28T12:14:27.638Z,58.10
2022-11-28T12:15:43.219Z,58.72
2022-11-28T12:16:57.065Z,59.11
2022-11-28T12:18:15.473Z,58.69
2022-11-28T12:19:29.176Z,58.86
2022-11-28T12:20:49.542Z,58.05
2022-11-28T12:22:07.967Z,58.70
2022-11-28T12:23:46.735Z,59.02
2022-11-28T12:24:59.710Z,57.45
2022-11-28T12:26:14.986Z,56.79
2022-11-28T12:27:31.523Z,56.69
2022-11-28T12:28:47.756Z,57.47
2022-11-28T12:30:00.770Z,56.62
2022-11-28T12:31:11.946Z,57.37
2022-11-28T12:32:28.007Z,57.67
2022-11-28T12:33:46.936Z,57.63
2022-11-28T12:35:03.765Z,57.26
2022-11-28T12:36:13.633Z,57.36
2022-11-28T12:37:54.665Z,56.73
2022-11-28T12:39:18.594Z,56.22
2022-11-28T12:40:39.445Z,55.89
2022-11-28T12:42:05.702Z,56.98
2022-11-28T12:43:22.252Z,55.97
2022-11-28T12:44:32.854Z,56.59
2022-11-28T12:45:43.930Z,57.29
2022-11-28T12:46:54.183Z,57.07
2022-11-28T12:48:08.246Z,57.60
2022-11-28T12:49:19.883Z,57.48
2022-11-28T12:50:33.272Z,58.06
2022-11-28T12:51:50.716Z,58.78
2022-11-28T12:53:01.337Z,59.05
2022-11-28T12:54:20.446Z,59.30
2022-11-28T12:55:33.573Z,59.60
2022-11-28T12:56:48.839Z,59.24
2022-11-28T12:58:07.023Z,59.36
2022-11-28T12:59:22.371Z,59.07
2022-11-28T13:00:27.593Z,59.45
2022-11-28T13:01:46.390Z,59.54
2022-11-28T13:02:59.924Z,59.40
2022-11-28T13:04:10.390Z,59.44
2022-11-28T13:05:24.777Z,59.57
2022-11-28T13:06:37.823Z,59.83
2022-11-28T13:07:50.350Z,59.77
2022-11-28T13:09:06.675Z,59.67
2022-11-28T13:10:16.073Z,59.69
2022-11-28T13:11:31.216Z,59.75
2022-11-28T13:12:48.655Z,60.21
2022-11-28T13:13:57.239Z,60.18
2022-11-28T13:15:04.237Z,60.05
2022-11-28T13:16:15.623Z,60.22
2022-11-28T13:17:29.697Z,60.71
2022-11-28T13:18:42.197Z,60.42
2022-11-28T13:19:51.228Z,60.68
2022-11-28T13:21:00.988Z,60.75
2022-11-28T13:22:11.121Z,61.03
2022-11-28T13:23:20.312Z,61.64
2022-11-28T13:24:30.217Z,61.79
2022-11-28T13:25:42.789Z,61.99
2022-11-28T13:26:59.076Z,62.22
2022-11-28T13:28:09.565Z,62.55
2022-11-28T13:29:27.965Z,62.72
2022-11-28T13:30:37.386Z,62.59
2022-11-28T13:31:48.619Z,62.92
2022-11-28T13:32:59.429Z,62.55
2022-11-28T13:34:02.051Z,62.02
2022-11-28T13:35:06.587Z,62.64
2022-11-28T13:39:33.933Z,61.19
2022-11-28T13:40:43.921Z,61.11
2022-11-28T13:42:36.064Z,59.35
2022-11-28T13:43:24.113Z,59.14
2022-11-28T13:44:35.839Z,57.25
2022-11-28T13:45:43.398Z,57.39
2022-11-28T13:46:51.559Z,56.97
2022-11-28T13:47:55.708Z,57.13
2022-11-28T13:50:41.682Z,56.78
2022-11-28T13:51:44.925Z,56.01
2022-11-28T13:52:57.820Z,55.20
2022-11-28T13:54:49.113Z,55.29
2022-11-28T13:55:54.405Z,58.82
2022-11-28T13:57:06.289Z,60.28
2022-11-28T13:58:22.535Z,61.67
2022-11-28T13:59:25.885Z,62.07
2022-11-28T14:00:30.697Z,62.16
2022-11-28T14:01:44.845Z,62.30
2022-11-28T14:02:52.278Z,63.01
2022-11-28T14:04:08.905Z,63.53
2022-11-28T14:05:27.707Z,63.17
2022-11-28T14:06:33.367Z,63.36
2022-11-28T14:07:36.907Z,63.47
2022-11-28T14:08:42.643Z,63.61
2022-11-28T14:09:53.924Z,63.56
2022-11-28T14:11:13.125Z,64.29
2022-11-28T14:12:21.701Z,64.88
2022-11-28T14:13:45.115Z,64.99
2022-11-28T14:15:08.538Z,65.52
2022-11-28T14:16:27.168Z,66.36
2022-11-28T14:18:00.912Z,66.38
2022-11-28T14:19:16.942Z,66.19
2022-11-28T14:20:32.612Z,66.68
2022-11-28T14:21:49.892Z,66.43
2022-11-28T14:23:08.101Z,66.93
2022-11-28T14:24:21.674Z,67.14
2022-11-28T14:25:28.851Z,66.21
2022-11-28T14:26:34.728Z,67.00
2022-11-28T14:27:40.960Z,66.96
2022-11-28T14:28:45.339Z,66.47
2022-11-28T14:29:52.047Z,66.48
2022-11-28T14:31:05.209Z,66.43
2022-11-28T14:32:31.134Z,66.70
2022-11-28T14:33:38.267Z,66.67
2022-11-28T14:34:43.629Z,66.31
2022-11-28T14:36:22.227Z,66.70